Time,TemperatureF,DewpointF,PressureIn,WindDirection,WindDirectionDegrees,WindSpeedMPH,WindSpeedGustMPH,Humidity,HourlyPrecipIn,Conditions,Clouds,dailyrainin,SoftwareType,DateUTC
2013-02-25 00:04:00,48.5,39.2,29.73,East,101,9.0,11.0,70,0.00,,CLR,0.00,VWS V14.01,2013-02-25 07:04:00,
2013-02-25 00:10:00,48.5,39.2,29.73,East,100,9.0,13.0,70,0.00,,CLR,0.00,VWS V14.01,2013-02-25 07:10:00,
2013-02-25 00:15:00,48.4,39.4,29.73,East,92,8.0,13.0,71,0.00,,CLR,0.00,VWS V14.01,2013-02-25 07:15:00,
2013-02-25 00:20:00,48.5,39.2,29.72,ENE,77,5.0,16.0,70,0.00,,CLR,0.00,VWS V14.01,2013-02-25 07:20:00,
2013-02-25 00:25:00,48.5,39.2,29.73,East,87,9.0,12.0,70,0.00,,CLR,0.00,VWS V14.01,2013-02-25 07:25:00,
2013-02-25 00:30:00,48.5,39.2,29.74,NE,50,3.0,11.0,70,0.00,,CLR,0.00,VWS V14.01,2013-02-25 07:30:00,
2013-02-25 00:35:00,48.5,39.5,29.75,NE,55,5.0,10.0,71,0.00,,CLR,0.00,VWS V14.01,2013-02-25 07:35:00,
2013-02-25 00:41:00,48.5,39.5,29.75,ENE,65,4.0,7.0,71,0.00,,CLR,0.00,VWS V14.01,2013-02-25 07:41:00,
2013-02-25 00:46:00,48.7,39.4,29.75,ENE,60,9.0,10.0,70,0.00,,CLR,0.00,VWS V14.01,2013-02-25 07:46:00,
2013-02-25 00:51:00,48.8,39.5,29.75,East,80,6.0,10.0,70,0.00,,SCT060,0.00,VWS V14.01,2013-02-25 07:51:00,
2013-02-25 00:57:00,48.9,39.6,29.74,East,88,5.0,6.0,70,0.00,,SCT060,0.00,VWS V14.01,2013-02-25 07:57:00,
2013-02-25 01:02:00,48.8,39.5,29.73,East,94,8.0,11.0,70,0.00,,SCT060,0.00,VWS V14.01,2013-02-25 08:02:00,
2013-02-25 01:08:00,48.7,39.4,29.73,East,83,6.0,10.0,70,0.00,,CLR,0.00,VWS V14.01,2013-02-25 08:08:00,
2013-02-25 01:14:00,48.7,39.4,29.73,ENE,65,7.0,13.0,70,0.00,,SCT060,0.00,VWS V14.01,2013-02-25 08:14:00,
2013-02-25 01:19:00,48.6,39.6,29.73,East,80,9.0,9.0,71,0.00,,CLR,0.00,VWS V14.01,2013-02-25 08:19:00,
2013-02-25 01:24:00,48.6,39.6,29.73,East,88,9.0,12.0,71,0.00,,SCT060,0.00,VWS V14.01,2013-02-25 08:24:00,
2013-02-25 01:30:00,48.5,39.5,29.72,ENE,78,9.0,11.0,71,0.00,,SCT060,0.00,VWS V14.01,2013-02-25 08:30:00,
2013-02-25 01:35:00,48.4,39.4,29.72,East,89,5.0,11.0,71,0.00,,BKN060,0.00,VWS V14.01,2013-02-25 08:35:00,
2013-02-25 01:40:00,48.3,39.3,29.72,ENE,71,4.0,8.0,71,0.00,,BKN060,0.00,VWS V14.01,2013-02-25 08:40:00,
2013-02-25 01:45:00,48.2,39.2,29.71,East,80,8.0,10.0,71,0.00,,BKN060,0.00,VWS V14.01,2013-02-25 08:45:00,
2013-02-25 01:50:00,48.1,39.2,29.71,East,86,5.0,9.0,71,0.00,,OVC070,0.00,VWS V14.01,2013-02-25 08:50:00,
2013-02-25 01:55:00,47.9,39.0,29.70,East,80,5.0,9.0,71,0.00,,OVC070,0.00,VWS V14.01,2013-02-25 08:55:00,
2013-02-25 02:01:00,47.8,38.9,29.71,ENE,67,9.0,10.0,71,0.00,,OVC070,0.00,VWS V14.01,2013-02-25 09:01:00,
2013-02-25 02:06:00,47.9,39.3,29.71,East,87,7.0,9.0,72,0.00,,SCT060,0.00,VWS V14.01,2013-02-25 09:06:00,
2013-02-25 02:11:00,48.1,39.2,29.71,East,89,6.0,7.0,71,0.00,,OVC070,0.00,VWS V14.01,2013-02-25 09:11:00,
2013-02-25 02:16:00,48.1,39.5,29.71,East,89,6.0,7.0,72,0.00,,SCT060,0.00,VWS V14.01,2013-02-25 09:16:00,
2013-02-25 02:22:00,48.1,39.2,29.71,East,80,9.0,10.0,71,0.00,,SCT060,0.00,VWS V14.01,2013-02-25 09:22:00,
2013-02-25 02:27:00,48.1,39.2,29.71,East,84,6.0,10.0,71,0.00,,SCT060,0.00,VWS V14.01,2013-02-25 09:27:00,
2013-02-25 02:33:00,48.2,40.3,29.71,East,84,9.0,9.0,74,0.00,,SCT060,0.00,VWS V14.01,2013-02-25 09:33:00,
2013-02-25 02:39:00,48.2,39.2,29.72,ENE,61,2.0,7.0,71,0.00,,OVC060,0.00,VWS V14.01,2013-02-25 09:39:00,
2013-02-25 02:45:00,48.2,39.2,29.72,East,86,6.0,8.0,71,0.00,,OVC060,0.00,VWS V14.01,2013-02-25 09:45:00,
2013-02-25 02:50:00,48.2,39.2,29.72,ENE,63,4.0,8.0,71,0.00,,OVC060,0.00,VWS V14.01,2013-02-25 09:50:00,
2013-02-25 02:55:00,48.2,39.2,29.72,ENE,70,4.0,7.0,71,0.00,,OVC037,0.00,VWS V14.01,2013-02-25 09:55:00,
2013-02-25 03:00:00,48.2,39.2,29.73,East,79,5.0,5.0,71,0.00,,OVC037,0.00,VWS V14.01,2013-02-25 10:00:00,
2013-02-25 03:05:00,48.2,39.2,29.73,East,84,5.0,5.0,71,0.00,,OVC037,0.00,VWS V14.01,2013-02-25 10:05:00,
2013-02-25 03:10:00,48.3,39.3,29.73,ENE,64,3.0,9.0,71,0.00,,BKN070,0.00,VWS V14.01,2013-02-25 10:10:00,
2013-02-25 03:15:00,48.3,39.3,29.72,ENE,65,4.0,8.0,71,0.00,,BKN070,0.00,VWS V14.01,2013-02-25 10:15:00,
2013-02-25 03:20:00,48.4,39.4,29.72,NE,50,8.0,8.0,71,0.00,,BKN070,0.00,VWS V14.01,2013-02-25 10:20:00,
2013-02-25 03:26:00,48.4,39.8,29.73,ENE,67,2.0,3.0,72,0.00,,BKN070,0.00,VWS V14.01,2013-02-25 10:26:00,
2013-02-25 03:31:00,48.5,39.9,29.74,ENE,63,0.0,4.0,72,0.00,,BKN070,0.00,VWS V14.01,2013-02-25 10:31:00,
2013-02-25 03:37:00,48.5,39.5,29.74,ENE,71,9.0,9.0,71,0.00,,OVC033,0.00,VWS V14.01,2013-02-25 10:37:00,
2013-02-25 03:42:00,48.6,40.0,29.74,ENE,74,5.0,5.0,72,0.00,,OVC033,0.00,VWS V14.01,2013-02-25 10:42:00,
2013-02-25 03:47:00,48.5,39.9,29.74,East,86,3.0,7.0,72,0.00,,OVC033,0.00,VWS V14.01,2013-02-25 10:47:00,
2013-02-25 03:52:00,48.5,39.9,29.74,East,80,6.0,8.0,72,0.00,,OVC031,0.00,VWS V14.01,2013-02-25 10:52:00,
2013-02-25 03:57:00,48.5,39.9,29.73,ENE,61,3.0,9.0,72,0.00,,OVC031,0.00,VWS V14.01,2013-02-25 10:57:00,
2013-02-25 04:02:00,48.4,40.2,29.73,ENE,68,7.0,11.0,73,0.00,,OVC031,0.00,VWS V14.01,2013-02-25 11:02:00,
2013-02-25 04:07:00,48.1,39.9,29.72,East,90,6.0,9.0,73,0.00,,OVC035,0.00,VWS V14.01,2013-02-25 11:07:00,
2013-02-25 04:12:00,48.2,40.0,29.72,East,90,5.0,9.0,73,0.00,,OVC031,0.00,VWS V14.01,2013-02-25 11:12:00,
2013-02-25 04:17:00,48.3,40.1,29.71,East,80,6.0,9.0,73,0.00,,OVC035,0.00,VWS V14.01,2013-02-25 11:17:00,
2013-02-25 04:22:00,48.3,40.1,29.71,East,91,6.0,8.0,73,0.00,,OVC031,0.00,VWS V14.01,2013-02-25 11:22:00,
2013-02-25 04:27:00,48.4,39.8,29.70,East,98,10.0,10.0,72,0.00,,OVC031,0.00,VWS V14.01,2013-02-25 11:27:00,
2013-02-25 04:32:00,48.4,39.8,29.70,ENE,78,4.0,10.0,72,0.00,,OVC031,0.00,VWS V14.01,2013-02-25 11:32:00,
2013-02-25 04:37:00,48.5,39.9,29.70,East,98,6.0,13.0,72,0.00,,OVC036,0.00,VWS V14.01,2013-02-25 11:37:00,
2013-02-25 04:42:00,48.6,40.0,29.71,East,85,6.0,10.0,72,0.00,,OVC036,0.00,VWS V14.01,2013-02-25 11:42:00,
2013-02-25 04:47:00,48.7,40.1,29.71,East,93,5.0,9.0,72,0.00,,OVC036,0.00,VWS V14.01,2013-02-25 11:47:00,
2013-02-25 04:52:00,48.8,40.5,29.70,East,84,3.0,8.0,73,0.00,,BKN041,0.00,VWS V14.01,2013-02-25 11:52:00,
2013-02-25 04:57:00,48.8,40.5,29.71,East,86,9.0,11.0,73,0.00,,BKN041,0.00,VWS V14.01,2013-02-25 11:57:00,
2013-02-25 05:02:00,49.0,40.7,29.70,East,99,8.0,15.0,73,0.00,,BKN041,0.00,VWS V14.01,2013-02-25 12:02:00,
2013-02-25 05:07:00,49.1,40.8,29.69,ESE,103,5.0,11.0,73,0.00,,OVC031,0.00,VWS V14.01,2013-02-25 12:07:00,
2013-02-25 05:12:00,49.2,40.9,29.70,ESE,103,11.0,12.0,73,0.00,,BKN041,0.00,VWS V14.01,2013-02-25 12:12:00,
2013-02-25 05:17:00,49.3,41.0,29.70,ESE,107,9.0,10.0,73,0.00,,OVC031,0.00,VWS V14.01,2013-02-25 12:17:00,
2013-02-25 05:22:00,49.3,41.0,29.69,East,101,7.0,13.0,73,0.00,,BKN041,0.00,VWS V14.01,2013-02-25 12:22:00,
2013-02-25 05:27:00,49.2,41.3,29.69,ESE,110,16.0,16.0,74,0.00,,BKN041,0.00,VWS V14.01,2013-02-25 12:27:00,
2013-02-25 05:32:00,49.1,41.2,29.68,East,99,9.0,10.0,74,0.00,,BKN041,0.00,VWS V14.01,2013-02-25 12:32:00,
2013-02-25 05:37:00,48.9,41.0,29.67,East,97,9.0,16.0,74,0.00,,OVC017,0.00,VWS V14.01,2013-02-25 12:37:00,
2013-02-25 05:42:00,48.7,41.1,29.67,East,88,10.0,13.0,75,0.00,,OVC017,0.00,VWS V14.01,2013-02-25 12:42:00,
2013-02-25 05:47:00,48.6,41.4,29.67,ESE,112,13.0,17.0,76,0.00,,OVC017,0.00,VWS V14.01,2013-02-25 12:47:00,
2013-02-25 05:53:00,48.5,41.3,29.66,ESE,108,10.0,14.0,76,0.00,,BKN017,0.00,VWS V14.01,2013-02-25 12:53:00,
2013-02-25 05:59:00,48.5,41.6,29.67,ESE,110,7.0,11.0,77,0.00,,BKN017,0.00,VWS V14.01,2013-02-25 12:59:00,
2013-02-25 06:04:00,48.4,41.5,29.66,ESE,106,11.0,13.0,77,0.00,,BKN017,0.00,VWS V14.01,2013-02-25 13:04:00,
2013-02-25 06:09:00,48.3,41.4,29.65,ESE,111,12.0,13.0,77,0.00,,OVC027,0.00,VWS V14.01,2013-02-25 13:09:00,
2013-02-25 06:14:00,48.3,41.8,29.66,ESE,107,5.0,9.0,78,0.00,,BKN017,0.00,VWS V14.01,2013-02-25 13:14:00,
2013-02-25 06:19:00,48.4,41.9,29.66,East,100,9.0,13.0,78,0.00,,OVC027,0.00,VWS V14.01,2013-02-25 13:19:00,
2013-02-25 06:24:00,48.5,42.0,29.66,ESE,105,13.0,13.0,78,0.00,,BKN017,0.00,VWS V14.01,2013-02-25 13:24:00,
2013-02-25 06:29:00,48.5,42.0,29.65,ESE,121,13.0,14.0,78,0.00,,BKN017,0.00,VWS V14.01,2013-02-25 13:29:00,
2013-02-25 06:34:00,48.7,42.2,29.65,ESE,115,9.0,9.0,78,0.00,,BKN017,0.00,VWS V14.01,2013-02-25 13:34:00,
2013-02-25 06:39:00,48.9,42.7,29.65,ESE,116,8.0,13.0,79,0.00,,BKN017,0.00,VWS V14.01,2013-02-25 13:39:00,
2013-02-25 06:44:00,48.8,42.9,29.64,ESE,114,13.0,13.0,80,0.00,,BKN017,0.00,VWS V14.01,2013-02-25 13:44:00,
2013-02-25 06:49:00,49.0,43.1,29.64,ESE,113,9.0,12.0,80,0.00,,BKN017,0.00,VWS V14.01,2013-02-25 13:49:00,
2013-02-25 06:54:00,49.2,43.0,29.64,ESE,107,8.0,16.0,79,0.00,,OVC015,0.00,VWS V14.01,2013-02-25 13:54:00,
2013-02-25 07:00:00,49.4,43.5,29.64,ESE,112,10.0,12.0,80,0.01,,OVC015,0.01,VWS V14.01,2013-02-25 14:00:00,
2013-02-25 07:05:00,49.3,44.0,29.63,ESE,113,11.0,14.0,82,0.01,,OVC015,0.01,VWS V14.01,2013-02-25 14:05:00,
2013-02-25 07:11:00,49.5,43.9,29.63,East,98,13.0,16.0,81,0.01,,OVC015,0.01,VWS V14.01,2013-02-25 14:11:00,
2013-02-25 07:16:00,49.6,43.7,29.64,ESE,119,12.0,20.0,80,0.01,,OVC015,0.01,VWS V14.01,2013-02-25 14:16:00,
2013-02-25 07:21:00,49.5,44.2,29.64,ESE,110,13.0,14.0,82,0.01,,OVC015,0.01,VWS V14.01,2013-02-25 14:21:00,
2013-02-25 07:26:00,49.3,44.0,29.63,ESE,111,10.0,12.0,82,0.01,,OVC015,0.01,VWS V14.01,2013-02-25 14:26:00,
2013-02-25 07:31:00,49.2,44.6,29.63,SE,126,9.0,13.0,84,0.01,,OVC015,0.01,VWS V14.01,2013-02-25 14:31:00,
2013-02-25 07:36:00,49.3,44.7,29.64,ESE,114,14.0,15.0,84,0.01,,OVC013,0.01,VWS V14.01,2013-02-25 14:36:00,
2013-02-25 07:41:00,49.5,44.6,29.63,ESE,113,11.0,15.0,83,0.01,,OVC013,0.01,VWS V14.01,2013-02-25 14:41:00,
2013-02-25 07:46:00,49.7,44.8,29.62,ESE,121,11.0,16.0,83,0.01,,OVC013,0.01,VWS V14.01,2013-02-25 14:46:00,
2013-02-25 07:51:00,49.8,45.2,29.63,ESE,115,11.0,14.0,84,0.01,,OVC013,0.01,VWS V14.01,2013-02-25 14:51:00,
2013-02-25 07:57:00,50.2,45.6,29.62,ESE,120,13.0,13.0,84,0.01,,OVC013,0.01,VWS V14.01,2013-02-25 14:57:00,
2013-02-25 08:02:00,50.3,45.7,29.62,ESE,122,15.0,18.0,84,0.00,,OVC013,0.01,VWS V14.01,2013-02-25 15:02:00,
2013-02-25 08:07:00,50.4,45.8,29.61,ESE,123,11.0,17.0,84,0.00,,OVC015,0.01,VWS V14.01,2013-02-25 15:07:00,
2013-02-25 08:12:00,50.4,46.1,29.61,ESE,115,9.0,16.0,85,0.00,,OVC013,0.01,VWS V14.01,2013-02-25 15:12:00,
2013-02-25 08:18:00,50.3,46.3,29.62,ESE,120,12.0,12.0,86,0.00,,OVC015,0.01,VWS V14.01,2013-02-25 15:18:00,
2013-02-25 08:23:00,50.3,46.3,29.61,SE,124,11.0,14.0,86,0.00,,OVC013,0.01,VWS V14.01,2013-02-25 15:23:00,
2013-02-25 08:28:00,50.4,46.1,29.60,ESE,109,10.0,16.0,85,0.00,,OVC013,0.01,VWS V14.01,2013-02-25 15:28:00,
2013-02-25 08:33:00,50.4,46.1,29.59,East,97,9.0,11.0,85,0.00,,OVC013,0.01,VWS V14.01,2013-02-25 15:33:00,
2013-02-25 08:38:00,50.3,46.0,29.58,ESE,107,13.0,16.0,85,0.00,,OVC013,0.01,VWS V14.01,2013-02-25 15:38:00,
2013-02-25 08:43:00,50.1,45.8,29.57,ESE,109,14.0,19.0,85,0.00,,OVC013,0.01,VWS V14.01,2013-02-25 15:43:00,
2013-02-25 08:48:00,49.8,45.8,29.56,ESE,113,11.0,17.0,86,0.01,,OVC013,0.02,VWS V14.01,2013-02-25 15:48:00,
2013-02-25 09:15:00,48.1,45.3,29.59,ESE,118,10.0,12.0,90,0.54,,OVC013,0.55,VWS V14.01,2013-02-25 16:15:00,
2013-02-25 09:20:00,47.8,45.3,29.60,South,178,4.0,6.0,91,0.59,,OVC013,0.60,VWS V14.01,2013-02-25 16:20:00,
2013-02-25 09:25:00,47.8,45.6,29.59,ESE,123,5.0,9.0,92,0.59,,OVC013,0.60,VWS V14.01,2013-02-25 16:25:00,
2013-02-25 09:30:00,48.1,46.2,29.58,SE,128,6.0,9.0,93,0.59,,OVC013,0.60,VWS V14.01,2013-02-25 16:30:00,
2013-02-25 09:35:00,48.3,46.1,29.59,SE,140,6.0,9.0,92,0.59,,OVC013,0.60,VWS V14.01,2013-02-25 16:35:00,
2013-02-25 09:40:00,48.6,46.7,29.59,SE,132,5.0,5.0,93,0.59,,OVC013,0.60,VWS V14.01,2013-02-25 16:40:00,
2013-02-25 09:45:00,48.8,46.9,29.58,SE,128,5.0,8.0,93,0.59,,OVC013,0.60,VWS V14.01,2013-02-25 16:45:00,
2013-02-25 09:50:00,49.0,47.1,29.58,ESE,121,8.0,9.0,93,0.57,,,0.60,VWS V14.01,2013-02-25 16:50:00,
2013-02-25 09:55:00,49.2,47.3,29.58,ESE,121,8.0,9.0,93,0.57,,,0.60,VWS V14.01,2013-02-25 16:55:00,
2013-02-25 10:00:00,49.3,47.4,29.58,SE,128,6.0,8.0,93,0.57,,,0.60,VWS V14.01,2013-02-25 17:00:00,
2013-02-25 10:05:00,49.4,47.5,29.57,SE,127,4.0,7.0,93,0.47,,OVC013,0.60,VWS V14.01,2013-02-25 17:05:00,
2013-02-25 10:11:00,49.5,47.6,29.57,SE,131,2.0,5.0,93,0.41,,,0.60,VWS V14.01,2013-02-25 17:11:00,
2013-02-25 10:16:00,49.5,47.6,29.57,SE,131,5.0,6.0,93,0.05,,OVC013,0.60,VWS V14.01,2013-02-25 17:16:00,
2013-02-25 10:21:00,49.6,47.7,29.57,SE,128,5.0,5.0,93,0.00,,,0.60,VWS V14.01,2013-02-25 17:21:00,
2013-02-25 10:26:00,49.6,47.7,29.57,SE,137,3.0,5.0,93,0.00,,,0.60,VWS V14.01,2013-02-25 17:26:00,
2013-02-25 10:31:00,49.6,47.7,29.57,SE,137,4.0,6.0,93,0.00,,,0.60,VWS V14.01,2013-02-25 17:31:00,
2013-02-25 10:36:00,49.6,48.0,29.57,SE,137,3.0,5.0,94,0.00,,OVC010,0.60,VWS V14.01,2013-02-25 17:36:00,
2013-02-25 10:41:00,49.7,48.0,29.56,SE,137,5.0,5.0,94,0.00,,OVC010,0.60,VWS V14.01,2013-02-25 17:41:00,
2013-02-25 10:46:00,49.8,48.2,29.56,SE,137,4.0,5.0,94,0.00,,OVC010,0.60,VWS V14.01,2013-02-25 17:46:00,
2013-02-25 10:51:00,49.9,48.2,29.56,SE,136,4.0,5.0,94,0.00,,OVC010,0.60,VWS V14.01,2013-02-25 17:51:00,
2013-02-25 10:56:00,49.9,48.2,29.55,SE,136,3.0,5.0,94,0.00,,OVC010,0.60,VWS V14.01,2013-02-25 17:56:00,
2013-02-25 11:01:00,49.9,48.2,29.55,SE,136,2.0,3.0,94,0.00,,OVC010,0.60,VWS V14.01,2013-02-25 18:01:00,
2013-02-25 11:06:00,49.9,48.2,29.55,SE,136,2.0,3.0,94,0.00,,OVC017,0.60,VWS V14.01,2013-02-25 18:06:00,
2013-02-25 11:11:00,50.0,48.3,29.54,SE,136,0.0,2.0,94,0.00,,OVC010,0.60,VWS V14.01,2013-02-25 18:11:00,
2013-02-25 11:16:00,49.9,48.2,29.54,SE,136,1.0,3.0,94,0.00,,OVC017,0.60,VWS V14.01,2013-02-25 18:16:00,
2013-02-25 11:21:00,50.0,48.3,29.54,SE,136,0.0,0.0,94,0.00,,OVC017,0.60,VWS V14.01,2013-02-25 18:21:00,
2013-02-25 11:26:00,50.1,48.4,29.53,SE,136,1.0,3.0,94,0.00,,OVC017,0.60,VWS V14.01,2013-02-25 18:26:00,
2013-02-25 11:32:00,50.6,49.2,29.52,SE,136,4.0,4.0,95,0.00,,OVC017,0.60,VWS V14.01,2013-02-25 18:32:00,
2013-02-25 11:38:00,50.7,49.3,29.52,SE,127,3.0,4.0,95,0.00,,OVC004,0.60,VWS V14.01,2013-02-25 18:38:00,
2013-02-25 11:43:00,50.8,49.4,29.53,SE,127,3.0,3.0,95,0.00,,OVC004,0.60,VWS V14.01,2013-02-25 18:43:00,
2013-02-25 11:48:00,50.9,49.5,29.52,SE,127,3.0,4.0,95,0.00,,OVC004,0.60,VWS V14.01,2013-02-25 18:48:00,
2013-02-25 11:53:00,51.0,49.6,29.52,SE,127,4.0,4.0,95,0.00,,OVC003,0.60,VWS V14.01,2013-02-25 18:53:00,
2013-02-25 11:58:00,51.0,49.6,29.52,SE,127,2.0,3.0,95,0.00,,OVC003,0.60,VWS V14.01,2013-02-25 18:58:00,
2013-02-25 12:03:00,51.2,49.8,29.52,SE,127,0.0,3.0,95,0.00,,OVC003,0.60,VWS V14.01,2013-02-25 19:03:00,
2013-02-25 12:08:00,51.6,50.2,29.52,SE,127,3.0,5.0,95,0.00,,OVC010,0.60,VWS V14.01,2013-02-25 19:08:00,
2013-02-25 12:13:00,51.7,50.3,29.51,SE,127,4.0,5.0,95,0.00,,OVC003,0.60,VWS V14.01,2013-02-25 19:13:00,
2013-02-25 12:18:00,52.0,50.6,29.51,SE,127,1.0,3.0,95,0.00,,OVC010,0.60,VWS V14.01,2013-02-25 19:18:00,
2013-02-25 12:23:00,52.4,51.0,29.50,SE,127,4.0,5.0,95,0.00,,OVC003,0.60,VWS V14.01,2013-02-25 19:23:00,
2013-02-25 12:28:00,52.8,51.4,29.50,SE,126,3.0,5.0,95,0.00,,OVC003,0.60,VWS V14.01,2013-02-25 19:28:00,
2013-02-25 12:33:00,53.5,52.1,29.49,SE,126,4.0,4.0,95,0.00,,OVC003,0.60,VWS V14.01,2013-02-25 19:33:00,
2013-02-25 12:38:00,53.6,52.2,29.49,SE,125,3.0,4.0,95,0.00,,OVC004,0.60,VWS V14.01,2013-02-25 19:38:00,
2013-02-25 12:43:00,54.0,52.6,29.48,ENE,59,4.0,8.0,95,0.00,,OVC004,0.60,VWS V14.01,2013-02-25 19:43:00,
2013-02-25 12:48:00,54.2,52.8,29.48,ENE,59,3.0,3.0,95,0.00,,OVC004,0.60,VWS V14.01,2013-02-25 19:48:00,
2013-02-25 12:53:00,54.1,52.7,29.47,ENE,61,1.0,4.0,95,0.00,,OVC004,0.60,VWS V14.01,2013-02-25 19:53:00,
2013-02-25 12:58:00,54.2,52.5,29.46,ENE,65,4.0,7.0,94,0.00,,OVC004,0.60,VWS V14.01,2013-02-25 19:58:00,
2013-02-25 13:03:00,54.8,53.4,29.45,ENE,67,7.0,7.0,95,0.00,,OVC004,0.60,VWS V14.01,2013-02-25 20:03:00,
2013-02-25 13:08:00,54.8,53.1,29.45,ENE,66,2.0,4.0,94,0.00,,OVC004,0.60,VWS V14.01,2013-02-25 20:08:00,
2013-02-25 13:13:00,54.8,53.1,29.46,ENE,66,1.0,1.0,94,0.00,,OVC004,0.60,VWS V14.01,2013-02-25 20:13:00,
2013-02-25 13:18:00,54.6,52.9,29.47,ENE,63,2.0,3.0,94,0.00,,OVC004,0.60,VWS V14.01,2013-02-25 20:18:00,
2013-02-25 13:23:00,54.6,52.9,29.48,West,279,5.0,8.0,94,0.00,,OVC004,0.60,VWS V14.01,2013-02-25 20:23:00,
2013-02-25 13:28:00,54.6,52.6,29.47,WSW,254,7.0,7.0,93,0.00,,OVC004,0.60,VWS V14.01,2013-02-25 20:28:00,
2013-02-25 13:33:00,55.1,52.8,29.48,WSW,237,9.0,9.0,92,0.00,,OVC004,0.60,VWS V14.01,2013-02-25 20:33:00,
2013-02-25 13:38:00,54.9,50.5,29.48,WNW,293,14.0,18.0,85,0.01,,OVC004,0.61,VWS V14.01,2013-02-25 20:38:00,
2013-02-25 13:43:00,54.1,49.4,29.48,WNW,289,19.0,23.0,84,0.01,,OVC004,0.61,VWS V14.01,2013-02-25 20:43:00,
2013-02-25 13:48:00,54.8,50.7,29.48,WNW,285,6.0,14.0,86,0.01,,OVC004,0.61,VWS V14.01,2013-02-25 20:48:00,
2013-02-25 13:53:00,54.9,49.8,29.49,WNW,291,13.0,21.0,83,0.01,,OVC060,0.61,VWS V14.01,2013-02-25 20:53:00,
2013-02-25 13:58:00,54.7,48.7,29.48,WNW,296,13.0,24.0,80,0.01,,OVC060,0.61,VWS V14.01,2013-02-25 20:58:00,
2013-02-25 14:03:00,54.4,48.4,29.49,WNW,294,9.0,17.0,80,0.01,,OVC060,0.61,VWS V14.01,2013-02-25 21:03:00,
2013-02-25 14:08:00,54.3,48.6,29.49,West,265,6.0,11.0,81,0.01,,OVC005,0.61,VWS V14.01,2013-02-25 21:08:00,
2013-02-25 14:13:00,55.0,48.6,29.49,NW,323,10.0,26.0,79,0.01,,OVC060,0.61,VWS V14.01,2013-02-25 21:13:00,
2013-02-25 14:18:00,54.8,48.4,29.48,WNW,287,13.0,17.0,79,0.01,,OVC005,0.61,VWS V14.01,2013-02-25 21:18:00,
2013-02-25 14:23:00,55.0,47.9,29.48,West,277,14.0,16.0,77,0.01,,OVC005,0.61,VWS V14.01,2013-02-25 21:23:00,
2013-02-25 14:28:00,55.5,48.1,29.48,WNW,289,13.0,18.0,76,0.01,,OVC005,0.61,VWS V14.01,2013-02-25 21:28:00,
2013-02-25 14:33:00,55.3,47.2,29.48,WNW,294,10.0,17.0,74,0.01,,OVC005,0.61,VWS V14.01,2013-02-25 21:33:00,
2013-02-25 14:38:00,55.7,47.9,29.48,NW,307,12.0,13.0,75,0.00,,SCT070,0.61,VWS V14.01,2013-02-25 21:38:00,
2013-02-25 14:43:00,56.0,46.7,29.48,West,274,14.0,14.0,71,0.00,,SCT070,0.61,VWS V14.01,2013-02-25 21:43:00,
2013-02-25 14:48:00,56.4,47.1,29.48,West,265,8.0,12.0,71,0.00,,SCT070,0.61,VWS V14.01,2013-02-25 21:48:00,
2013-02-25 14:53:00,56.5,46.1,29.48,WNW,293,7.0,11.0,68,0.00,,FEW033,0.61,VWS V14.01,2013-02-25 21:53:00,
2013-02-25 14:58:00,56.7,46.3,29.48,West,264,15.0,15.0,68,0.00,,FEW033,0.61,VWS V14.01,2013-02-25 21:58:00,
2013-02-25 15:03:00,56.7,45.5,29.47,West,278,3.0,9.0,66,0.00,,FEW033,0.61,VWS V14.01,2013-02-25 22:03:00,
2013-02-25 15:08:00,56.4,45.6,29.47,WNW,298,8.0,12.0,67,0.00,,BKN060,0.61,VWS V14.01,2013-02-25 22:08:00,
2013-02-25 15:13:00,56.3,45.5,29.47,WNW,290,6.0,11.0,67,0.00,,FEW033,0.61,VWS V14.01,2013-02-25 22:13:00,
2013-02-25 15:18:00,56.3,45.5,29.47,WNW,289,5.0,8.0,67,0.00,,BKN060,0.61,VWS V14.01,2013-02-25 22:18:00,
2013-02-25 15:23:00,55.9,44.7,29.47,WNW,286,3.0,6.0,66,0.00,,BKN060,0.61,VWS V14.01,2013-02-25 22:23:00,
2013-02-25 15:28:00,56.4,45.2,29.47,WNW,300,10.0,12.0,66,0.00,,BKN060,0.61,VWS V14.01,2013-02-25 22:28:00,
2013-02-25 15:33:00,56.7,44.7,29.47,WNW,293,8.0,10.0,64,0.00,,BKN060,0.61,VWS V14.01,2013-02-25 22:33:00,
2013-02-25 15:39:00,56.7,45.1,29.47,WNW,300,6.0,10.0,65,0.00,,CLR,0.61,VWS V14.01,2013-02-25 22:39:00,
2013-02-25 15:44:00,56.6,45.4,29.47,WNW,290,5.0,6.0,66,0.00,,CLR,0.61,VWS V14.01,2013-02-25 22:44:00,
2013-02-25 15:49:00,56.8,45.6,29.47,NW,305,8.0,8.0,66,0.00,,CLR,0.61,VWS V14.01,2013-02-25 22:49:00,
2013-02-25 15:54:00,56.6,45.4,29.47,WNW,301,7.0,7.0,66,0.00,,CLR,0.61,VWS V14.01,2013-02-25 22:54:00,
2013-02-25 15:59:00,56.2,45.0,29.47,NW,304,4.0,6.0,66,0.00,,CLR,0.61,VWS V14.01,2013-02-25 22:59:00,
2013-02-25 16:04:00,55.7,44.5,29.47,WNW,286,4.0,8.0,66,0.00,,CLR,0.61,VWS V14.01,2013-02-25 23:04:00,
2013-02-25 16:09:00,55.2,44.0,29.47,NW,309,8.0,8.0,66,0.00,,CLR,0.61,VWS V14.01,2013-02-25 23:09:00,
2013-02-25 16:14:00,54.8,44.5,29.48,NW,320,5.0,8.0,68,0.00,,CLR,0.61,VWS V14.01,2013-02-25 23:14:00,
2013-02-25 16:19:00,54.6,44.7,29.48,NW,309,5.0,5.0,69,0.00,,CLR,0.61,VWS V14.01,2013-02-25 23:19:00,
2013-02-25 16:24:00,54.3,44.4,29.48,NW,311,7.0,10.0,69,0.00,,CLR,0.61,VWS V14.01,2013-02-25 23:24:00,
2013-02-25 16:29:00,54.1,43.8,29.48,WNW,302,6.0,10.0,68,0.00,,CLR,0.61,VWS V14.01,2013-02-25 23:29:00,
2013-02-25 16:34:00,53.9,44.0,29.48,NW,316,8.0,8.0,69,0.00,,CLR,0.61,VWS V14.01,2013-02-25 23:34:00,
2013-02-25 16:40:00,53.6,43.7,29.48,WNW,300,8.0,8.0,69,0.00,,FEW075,0.61,VWS V14.01,2013-02-25 23:40:00,
2013-02-25 16:45:00,53.3,44.2,29.49,WNW,284,3.0,8.0,71,0.00,,FEW075,0.61,VWS V14.01,2013-02-25 23:45:00,
2013-02-25 16:50:00,53.1,44.0,29.49,West,279,8.0,8.0,71,0.00,,BKN070,0.61,VWS V14.01,2013-02-25 23:50:00,
2013-02-25 16:55:00,52.8,43.7,29.50,West,274,8.0,11.0,71,0.00,,BKN070,0.61,VWS V14.01,2013-02-25 23:55:00,
2013-02-25 17:00:00,52.3,43.9,29.50,WNW,290,2.0,9.0,73,0.00,,BKN070,0.61,VWS V14.01,2013-02-26 00:00:00,
2013-02-25 17:05:00,51.6,44.3,29.50,West,279,5.0,7.0,76,0.00,,OVC050,0.61,VWS V14.01,2013-02-26 00:05:00,
2013-02-25 17:10:00,51.0,44.4,29.50,West,272,6.0,6.0,78,0.00,,OVC050,0.61,VWS V14.01,2013-02-26 00:10:00,
2013-02-25 17:15:00,50.6,44.3,29.50,West,281,0.0,2.0,79,0.00,,OVC050,0.61,VWS V14.01,2013-02-26 00:15:00,
2013-02-25 17:20:00,50.3,44.0,29.50,West,281,2.0,3.0,79,0.00,,OVC050,0.61,VWS V14.01,2013-02-26 00:20:00,
2013-02-25 17:25:00,50.1,43.8,29.50,West,281,0.0,2.0,79,0.00,,OVC050,0.61,VWS V14.01,2013-02-26 00:25:00,
2013-02-25 17:30:00,50.0,43.8,29.50,West,281,1.0,1.0,79,0.00,,OVC050,0.61,VWS V14.01,2013-02-26 00:30:00,
2013-02-25 17:35:00,49.9,44.0,29.51,West,281,1.0,2.0,80,0.00,,OVC060,0.61,VWS V14.01,2013-02-26 00:35:00,
2013-02-25 17:40:00,49.6,43.7,29.51,West,281,3.0,4.0,80,0.00,,OVC060,0.61,VWS V14.01,2013-02-26 00:40:00,
2013-02-25 17:45:00,49.5,43.9,29.51,West,281,2.0,4.0,81,0.00,,OVC060,0.61,VWS V14.01,2013-02-26 00:45:00,
2013-02-25 17:50:00,49.5,43.6,29.51,West,281,4.0,5.0,80,0.00,,OVC060,0.61,VWS V14.01,2013-02-26 00:50:00,
2013-02-25 17:55:00,49.4,43.8,29.51,WSW,253,10.0,10.0,81,0.00,,OVC060,0.61,VWS V14.01,2013-02-26 00:55:00,
2013-02-25 18:00:00,49.5,41.6,29.51,West,267,7.0,16.0,74,0.00,,OVC060,0.61,VWS V14.01,2013-02-26 01:00:00,
2013-02-25 18:05:00,49.2,41.6,29.52,WSW,254,8.0,14.0,75,0.01,,OVC050,0.62,VWS V14.01,2013-02-26 01:05:00,
2013-02-25 18:10:00,48.5,41.3,29.52,West,262,13.0,13.0,76,0.01,,OVC060,0.62,VWS V14.01,2013-02-26 01:10:00,
2013-02-25 18:15:00,48.3,41.4,29.52,West,264,10.0,12.0,77,0.01,,OVC050,0.62,VWS V14.01,2013-02-26 01:15:00,
2013-02-25 18:20:00,48.4,41.2,29.52,West,259,11.0,15.0,76,0.01,,OVC050,0.62,VWS V14.01,2013-02-26 01:20:00,
2013-02-25 18:25:00,48.7,40.8,29.52,West,261,5.0,8.0,74,0.01,,OVC050,0.62,VWS V14.01,2013-02-26 01:25:00,
2013-02-25 18:30:00,48.6,40.7,29.52,West,281,8.0,9.0,74,0.01,,OVC050,0.62,VWS V14.01,2013-02-26 01:30:00,
2013-02-25 18:35:00,48.6,40.3,29.52,West,268,4.0,8.0,73,0.01,,OVC048,0.62,VWS V14.01,2013-02-26 01:35:00,
2013-02-25 18:40:00,48.7,38.6,29.52,West,260,8.0,14.0,68,0.01,,OVC048,0.62,VWS V14.01,2013-02-26 01:40:00,
2013-02-25 18:46:00,48.8,38.3,29.52,West,263,6.0,12.0,67,0.01,,OVC048,0.62,VWS V14.01,2013-02-26 01:46:00,
2013-02-25 18:51:00,48.6,38.2,29.52,West,274,4.0,9.0,67,0.01,,BKN055,0.62,VWS V14.01,2013-02-26 01:51:00,
2013-02-25 18:56:00,48.3,37.9,29.52,WSW,258,4.0,9.0,67,0.01,,BKN055,0.62,VWS V14.01,2013-02-26 01:56:00,
2013-02-25 19:01:00,47.9,38.6,29.51,WSW,251,5.0,5.0,70,0.01,,BKN055,0.62,VWS V14.01,2013-02-26 02:01:00,
2013-02-25 19:06:00,47.4,37.8,29.51,WSW,244,7.0,8.0,69,0.00,,OVC060,0.62,VWS V14.01,2013-02-26 02:06:00,
2013-02-25 19:11:00,47.4,37.0,29.51,WSW,242,5.0,11.0,67,0.00,,BKN055,0.62,VWS V14.01,2013-02-26 02:11:00,
2013-02-25 19:16:00,47.1,36.7,29.51,WSW,257,5.0,8.0,67,0.00,,OVC060,0.62,VWS V14.01,2013-02-26 02:16:00,
2013-02-25 19:21:00,46.7,36.3,29.51,WSW,248,7.0,8.0,67,0.00,,OVC060,0.62,VWS V14.01,2013-02-26 02:21:00,
2013-02-25 19:26:00,46.3,36.0,29.52,WSW,247,6.0,8.0,67,0.00,,OVC060,0.62,VWS V14.01,2013-02-26 02:26:00,
2013-02-25 19:31:00,46.1,36.1,29.52,WSW,247,5.0,7.0,68,0.00,,OVC060,0.62,VWS V14.01,2013-02-26 02:31:00,
2013-02-25 19:37:00,45.9,36.0,29.52,WSW,242,6.0,9.0,68,0.00,,FEW050,0.62,VWS V14.01,2013-02-26 02:37:00,
2013-02-25 19:42:00,45.8,35.8,29.52,WSW,238,8.0,11.0,68,0.00,,FEW050,0.62,VWS V14.01,2013-02-26 02:42:00,
2013-02-25 19:47:00,45.6,35.7,29.52,WSW,237,5.0,6.0,68,0.00,,FEW050,0.62,VWS V14.01,2013-02-26 02:47:00,
2013-02-25 19:52:00,45.4,35.5,29.52,WSW,244,9.0,9.0,68,0.00,,CLR,0.62,VWS V14.01,2013-02-26 02:52:00,
2013-02-25 19:57:00,45.2,35.7,29.52,WSW,246,8.0,9.0,69,0.00,,CLR,0.62,VWS V14.01,2013-02-26 02:57:00,
2013-02-25 20:03:00,45.0,35.5,29.52,WSW,254,7.0,15.0,69,0.00,,CLR,0.62,VWS V14.01,2013-02-26 03:03:00,
2013-02-25 20:08:00,45.0,35.8,29.53,WSW,244,6.0,11.0,70,0.00,,SCT050,0.62,VWS V14.01,2013-02-26 03:08:00,
2013-02-25 20:13:00,44.8,35.6,29.53,WSW,249,7.0,8.0,70,0.00,,CLR,0.62,VWS V14.01,2013-02-26 03:13:00,
2013-02-25 20:18:00,44.6,35.8,29.53,WSW,246,3.0,9.0,71,0.00,,SCT050,0.62,VWS V14.01,2013-02-26 03:18:00,
2013-02-25 20:23:00,44.4,35.6,29.53,SW,233,4.0,7.0,71,0.00,,SCT050,0.62,VWS V14.01,2013-02-26 03:23:00,
2013-02-25 20:29:00,44.3,35.5,29.54,SW,234,7.0,8.0,71,0.00,,SCT050,0.62,VWS V14.01,2013-02-26 03:29:00,
2013-02-25 20:34:00,44.3,35.9,29.54,SW,236,9.0,9.0,72,0.00,,SCT050,0.62,VWS V14.01,2013-02-26 03:34:00,
2013-02-25 20:39:00,44.3,35.5,29.54,WSW,245,7.0,10.0,71,0.00,,BKN047,0.62,VWS V14.01,2013-02-26 03:39:00,
2013-02-25 20:44:00,44.3,35.9,29.54,SW,228,11.0,11.0,72,0.00,,BKN047,0.62,VWS V14.01,2013-02-26 03:44:00,
2013-02-25 20:49:00,44.2,35.8,29.55,SW,220,9.0,11.0,72,0.00,,BKN047,0.62,VWS V14.01,2013-02-26 03:49:00,
2013-02-25 20:54:00,44.1,35.7,29.55,WSW,245,10.0,12.0,72,0.00,,OVC047,0.62,VWS V14.01,2013-02-26 03:54:00,
2013-02-25 20:59:00,44.0,35.6,29.55,SW,236,9.0,12.0,72,0.00,,OVC047,0.62,VWS V14.01,2013-02-26 03:59:00,
2013-02-25 21:04:00,43.8,35.7,29.55,WSW,243,9.0,12.0,73,0.00,,OVC047,0.62,VWS V14.01,2013-02-26 04:04:00,
2013-02-25 21:09:00,43.6,35.9,29.55,SW,234,8.0,8.0,74,0.00,,CLR,0.62,VWS V14.01,2013-02-26 04:09:00,
2013-02-25 21:14:00,43.3,35.6,29.55,SW,235,8.0,12.0,74,0.00,,OVC047,0.62,VWS V14.01,2013-02-26 04:14:00,
2013-02-25 21:19:00,43.1,35.7,29.55,SW,234,6.0,8.0,75,0.00,,CLR,0.62,VWS V14.01,2013-02-26 04:19:00,
2013-02-25 21:24:00,42.7,35.3,29.55,SW,230,7.0,7.0,75,0.00,,CLR,0.62,VWS V14.01,2013-02-26 04:24:00,
2013-02-25 21:29:00,42.4,35.4,29.55,WSW,243,7.0,12.0,76,0.00,,CLR,0.62,VWS V14.01,2013-02-26 04:29:00,
2013-02-25 21:34:00,42.3,35.9,29.56,SW,232,10.0,11.0,78,0.00,,CLR,0.62,VWS V14.01,2013-02-26 04:34:00,
2013-02-25 21:39:00,42.4,36.7,29.56,WSW,244,7.0,15.0,80,0.00,,BKN090,0.62,VWS V14.01,2013-02-26 04:39:00,
2013-02-25 21:44:00,42.2,37.4,29.56,WSW,238,7.0,12.0,83,0.00,,BKN090,0.62,VWS V14.01,2013-02-26 04:44:00,
2013-02-25 21:49:00,42.0,37.5,29.56,WSW,237,10.0,13.0,84,0.00,,BKN090,0.62,VWS V14.01,2013-02-26 04:49:00,
2013-02-25 21:54:00,41.9,37.7,29.56,WSW,246,7.0,14.0,85,0.00,,FEW090,0.62,VWS V14.01,2013-02-26 04:54:00,
2013-02-25 21:59:00,41.8,37.9,29.56,WSW,243,8.0,14.0,86,0.00,,FEW090,0.62,VWS V14.01,2013-02-26 04:59:00,
2013-02-25 22:00:00,41.8,37.9,29.56,SW,225,9.0,10.0,86,0.00,,FEW090,0.62,VWS V14.01,2013-02-26 05:00:00,
2013-02-25 22:01:00,41.8,37.9,29.56,SW,231,10.0,13.0,86,0.00,,FEW090,0.62,VWS V14.01,2013-02-26 05:01:00,
2013-02-25 22:03:00,41.9,38.0,29.56,SW,234,13.0,19.0,86,0.00,,FEW090,0.62,VWS V14.01,2013-02-26 05:03:00,
2013-02-25 22:06:00,42.1,38.5,29.56,WSW,241,11.0,15.0,87,0.00,,OVC049,0.62,VWS V14.01,2013-02-26 05:06:00,
2013-02-25 22:11:00,42.1,38.5,29.56,WSW,250,15.0,16.0,87,0.00,,FEW090,0.62,VWS V14.01,2013-02-26 05:11:00,
2013-02-25 22:16:00,42.2,38.6,29.56,West,261,8.0,14.0,87,0.00,,OVC049,0.62,VWS V14.01,2013-02-26 05:16:00,
2013-02-25 22:21:00,42.0,38.4,29.56,West,273,13.0,14.0,87,0.00,,FEW090,0.62,VWS V14.01,2013-02-26 05:21:00,
2013-02-25 22:27:00,41.8,38.2,29.56,West,268,6.0,11.0,87,0.00,,FEW090,0.62,VWS V14.01,2013-02-26 05:27:00,
2013-02-25 22:32:00,41.4,37.8,29.56,West,260,13.0,15.0,87,0.00,,FEW090,0.62,VWS V14.01,2013-02-26 05:32:00,
2013-02-25 22:37:00,41.2,37.9,29.56,WSW,254,13.0,13.0,88,0.00,,BKN080,0.62,VWS V14.01,2013-02-26 05:37:00,
2013-02-25 22:42:00,41.2,37.9,29.57,West,261,10.0,16.0,88,0.00,,BKN080,0.62,VWS V14.01,2013-02-26 05:42:00,
2013-02-25 22:48:00,41.1,37.8,29.56,West,262,15.0,20.0,88,0.00,,BKN080,0.62,VWS V14.01,2013-02-26 05:48:00,
2013-02-25 22:53:00,41.0,37.7,29.56,West,273,10.0,16.0,88,0.00,,OVC009,0.62,VWS V14.01,2013-02-26 05:53:00,
2013-02-25 22:58:00,40.7,37.7,29.57,WSW,248,16.0,16.0,89,0.00,,OVC009,0.62,VWS V14.01,2013-02-26 05:58:00,
2013-02-25 23:03:00,40.5,37.8,29.57,West,264,13.0,19.0,90,0.01,,OVC009,0.00,VWS V14.01,2013-02-26 06:03:00,
2013-02-25 23:08:00,40.4,37.7,29.57,WNW,283,10.0,14.0,90,0.01,,FEW019,0.00,VWS V14.01,2013-02-26 06:08:00,
2013-02-25 23:13:00,40.3,37.9,29.57,West,262,13.0,18.0,91,0.01,,OVC009,0.00,VWS V14.01,2013-02-26 06:13:00,
2013-02-25 23:18:00,40.3,37.9,29.58,WNW,289,10.0,18.0,91,0.01,,FEW019,0.00,VWS V14.01,2013-02-26 06:18:00,
2013-02-25 23:23:00,40.0,37.3,29.57,West,261,15.0,17.0,90,0.01,,OVC009,0.00,VWS V14.01,2013-02-26 06:23:00,
2013-02-25 23:28:00,39.7,36.7,29.58,WNW,291,19.0,22.0,89,0.01,,OVC009,0.00,VWS V14.01,2013-02-26 06:28:00,
2013-02-25 23:33:00,39.5,36.5,29.58,WNW,290,13.0,23.0,89,0.01,,OVC009,0.00,VWS V14.01,2013-02-26 06:33:00,
2013-02-25 23:38:00,39.3,36.3,29.58,West,263,7.0,12.0,89,0.01,,OVC009,0.00,VWS V14.01,2013-02-26 06:38:00,
2013-02-25 23:43:00,39.2,36.0,29.58,WNW,286,9.0,17.0,88,0.01,,OVC009,0.00,VWS V14.01,2013-02-26 06:43:00,
2013-02-25 23:48:00,39.2,36.0,29.59,WNW,294,17.0,23.0,88,0.01,,OVC009,0.00,VWS V14.01,2013-02-26 06:48:00,
2013-02-25 23:53:00,39.2,36.0,29.59,WNW,296,12.0,20.0,88,0.01,,OVC026,0.00,VWS V14.01,2013-02-26 06:53:00,
2013-02-25 23:58:00,39.2,35.7,29.59,WNW,289,7.0,23.0,87,0.01,,OVC026,0.00,VWS V14.01,2013-02-26 06:58:00,